createdAt,value
2022-08-15T00:00:35.076Z,24.72
2022-08-15T00:03:09.901Z,24.73
2022-08-15T00:05:42.432Z,24.34
2022-08-15T00:08:50.964Z,24.65
2022-08-15T00:11:20.872Z,24.57
2022-08-15T00:13:59.768Z,24.66
2022-08-15T00:16:37.390Z,24.76
2022-08-15T00:19:10.162Z,24.76
2022-08-15T00:21:42.415Z,24.78
2022-08-15T00:24:20.247Z,24.77
2022-08-15T00:26:54.717Z,24.83
2022-08-15T00:29:37.577Z,24.91
2022-08-15T00:33:02.985Z,24.87
2022-08-15T00:34:59.684Z,24.81
2022-08-15T00:37:30.559Z,24.76
2022-08-15T00:40:00.014Z,24.80
2022-08-15T00:42:30.702Z,24.67
2022-08-15T00:45:07.176Z,24.75
2022-08-15T00:47:43.602Z,24.61
2022-08-15T00:50:33.828Z,24.06
2022-08-15T00:53:05.788Z,24.21
2022-08-15T00:55:37.994Z,24.07
2022-08-15T00:58:08.190Z,24.13
2022-08-15T01:00:57.230Z,24.12
2022-08-15T01:03:34.611Z,23.89
2022-08-15T01:06:28.621Z,23.93
2022-08-15T01:09:01.885Z,24.12
2022-08-15T01:11:42.899Z,24.21
2022-08-15T01:14:56.049Z,24.20
2022-08-15T01:17:07.511Z,24.34
2022-08-15T01:19:44.461Z,24.13
2022-08-15T01:22:24.694Z,23.89
2022-08-15T01:25:25.650Z,23.68
2022-08-15T01:27:55.009Z,23.81
2022-08-15T01:30:39.710Z,23.81
2022-08-15T01:33:21.694Z,23.92
2022-08-15T01:35:52.958Z,23.84
2022-08-15T01:38:38.550Z,23.12
2022-08-15T01:41:36.627Z,22.96
2022-08-15T01:44:24.942Z,23.00
2022-08-15T01:47:12.332Z,22.62
2022-08-15T01:49:58.338Z,22.74
2022-08-15T01:52:58.207Z,23.04
2022-08-15T01:55:32.354Z,23.40
2022-08-15T01:58:07.598Z,23.41
2022-08-15T02:00:43.057Z,23.40
2022-08-15T02:03:20.455Z,23.65
2022-08-15T02:05:56.918Z,23.49
2022-08-15T02:08:32.498Z,23.27
2022-08-15T02:11:05.878Z,23.17
2022-08-15T02:13:49.589Z,23.08
2022-08-15T02:16:19.604Z,23.09
2022-08-15T02:18:52.311Z,22.95
2022-08-15T02:21:36.826Z,22.84
2022-08-15T02:24:20.310Z,23.14
2022-08-15T02:26:51.726Z,22.72
2022-08-15T02:29:24.248Z,23.04
2022-08-15T02:31:53.761Z,23.08
2022-08-15T02:34:22.167Z,23.27
2022-08-15T02:37:12.820Z,23.19
2022-08-15T02:39:45.716Z,23.25
2022-08-15T02:42:27.212Z,23.36
2022-08-15T02:44:57.469Z,23.41
2022-08-15T02:47:26.907Z,23.61
2022-08-15T02:49:55.991Z,23.59
2022-08-15T02:52:24.757Z,23.60
2022-08-15T02:54:59.805Z,23.83
2022-08-15T02:57:59.945Z,23.62
2022-08-15T03:00:27.608Z,23.59
2022-08-15T03:03:00.064Z,23.50
2022-08-15T03:05:32.987Z,23.56
2022-08-15T03:08:01.749Z,23.51
2022-08-15T03:10:31.300Z,23.34
2022-08-15T03:13:02.544Z,23.21
2022-08-15T03:15:40.557Z,22.81
2022-08-15T03:18:12.067Z,22.32
2022-08-15T03:20:41.113Z,22.30
2022-08-15T03:23:15.133Z,22.50
2022-08-15T03:25:52.566Z,22.58
2022-08-15T03:28:27.702Z,22.63
2022-08-15T03:31:00.309Z,21.87
2022-08-15T03:33:55.144Z,21.73
2022-08-15T03:36:23.321Z,22.18
2022-08-15T03:38:56.154Z,22.34
2022-08-15T03:41:26.951Z,22.35
2022-08-15T03:43:56.678Z,22.47
2022-08-15T03:46:26.715Z,22.55
2022-08-15T03:49:00.701Z,22.54
2022-08-15T03:51:31.814Z,22.47
2022-08-15T03:54:04.959Z,22.54
2022-08-15T03:56:35.051Z,22.49
2022-08-15T03:59:06.130Z,22.58
2022-08-15T04:01:43.980Z,22.46
2022-08-15T04:04:18.510Z,22.40
2022-08-15T04:06:47.567Z,22.49
2022-08-15T04:09:30.221Z,22.55
2022-08-15T04:12:00.354Z,22.56
2022-08-15T04:14:35.724Z,22.32
2022-08-15T04:17:12.679Z,22.16
2022-08-15T04:19:48.998Z,21.91
2022-08-15T04:22:28.631Z,21.85
2022-08-15T04:25:17.895Z,21.82
2022-08-15T04:27:52.315Z,21.93
2022-08-15T04:30:24.213Z,22.08
2022-08-15T04:32:59.086Z,22.06
2022-08-15T04:35:36.556Z,21.86
2022-08-15T04:38:05.542Z,21.96
2022-08-15T04:41:17.615Z,21.73
2022-08-15T04:43:25.022Z,21.63
2022-08-15T04:45:54.141Z,21.78
2022-08-15T04:48:34.602Z,21.88
2022-08-15T04:51:06.753Z,21.91
2022-08-15T04:53:54.222Z,21.89
2022-08-15T04:56:50.902Z,21.83
2022-08-15T04:59:19.618Z,21.76
2022-08-15T05:02:49.877Z,21.78
2022-08-15T05:04:54.153Z,21.96
2022-08-15T05:07:27.811Z,21.85
2022-08-15T05:09:59.122Z,21.82
2022-08-15T05:12:46.839Z,21.90
2022-08-15T05:15:23.535Z,21.83
2022-08-15T05:18:00.690Z,21.66
2022-08-15T05:20:30.617Z,21.67
2022-08-15T05:23:06.634Z,21.51
2022-08-15T05:25:41.889Z,21.54
2022-08-15T05:28:30.412Z,21.60
2022-08-15T05:31:13.347Z,21.34
2022-08-15T05:33:57.868Z,21.54
2022-08-15T05:36:29.953Z,21.45
2022-08-15T05:39:01.531Z,21.66
2022-08-15T05:41:38.131Z,21.69
2022-08-15T05:44:38.106Z,21.73
2022-08-15T05:47:13.370Z,21.65
2022-08-15T05:49:51.977Z,21.74
2022-08-15T05:52:34.671Z,22.04
2022-08-15T05:55:22.881Z,22.18
2022-08-15T05:58:15.496Z,22.52
2022-08-15T06:01:06.465Z,22.51
2022-08-15T06:03:49.039Z,22.56
2022-08-15T06:06:25.841Z,22.52
2022-08-15T06:09:05.410Z,22.73
2022-08-15T06:11:46.094Z,22.79
2022-08-15T06:14:35.671Z,22.92
2022-08-15T06:17:09.137Z,22.93
2022-08-15T06:19:43.643Z,22.91
2022-08-15T06:22:44.312Z,22.65
2022-08-15T06:25:25.347Z,22.34
2022-08-15T06:28:53.544Z,22.51
2022-08-15T06:31:39.045Z,22.39
2022-08-15T06:34:54.524Z,22.37
2022-08-15T06:37:21.203Z,22.24
2022-08-15T06:40:00.415Z,22.22
2022-08-15T06:42:36.541Z,22.27
2022-08-15T06:45:11.617Z,22.34
2022-08-15T06:47:43.757Z,22.62
2022-08-15T06:50:34.476Z,22.56
2022-08-15T06:53:09.900Z,22.69
2022-08-15T06:55:48.399Z,22.72
2022-08-15T06:58:55.895Z,22.66
2022-08-15T07:02:12.702Z,22.54
2022-08-15T07:04:37.313Z,22.47
2022-08-15T07:07:12.649Z,22.49
2022-08-15T07:09:56.294Z,22.45
2022-08-15T07:12:36.439Z,22.50
2022-08-15T07:15:15.575Z,22.72
2022-08-15T07:17:53.797Z,22.79
2022-08-15T07:20:39.697Z,22.70
2022-08-15T07:23:18.161Z,22.66
2022-08-15T07:25:49.354Z,22.80
2022-08-15T07:28:29.831Z,22.95
2022-08-15T07:31:07.910Z,23.03
2022-08-15T07:33:55.420Z,22.90
2022-08-15T07:36:30.016Z,22.81
2022-08-15T07:39:34.082Z,22.78
2022-08-15T07:42:28.923Z,22.74
2022-08-15T07:45:10.971Z,22.73
2022-08-15T07:47:42.541Z,22.59
2022-08-15T07:50:33.096Z,22.75
2022-08-15T07:53:08.322Z,22.80
2022-08-15T07:58:57.193Z,23.01
2022-08-15T08:01:35.523Z,22.92
2022-08-15T08:04:23.401Z,22.99
2022-08-15T08:06:59.707Z,22.78
2022-08-15T08:09:40.694Z,22.99
2022-08-15T08:12:30.358Z,22.97
2022-08-15T08:15:12.114Z,23.05
2022-08-15T08:17:47.051Z,23.29
2022-08-15T08:20:29.338Z,23.43
2022-08-15T08:23:05.102Z,23.51
2022-08-15T08:26:03.583Z,23.55
2022-08-15T08:28:36.874Z,23.55
2022-08-15T08:31:17.887Z,23.50
2022-08-15T08:34:07.641Z,23.60
2022-08-15T08:36:50.408Z,23.64
2022-08-15T08:39:36.373Z,23.48
2022-08-15T08:42:20.258Z,23.55
2022-08-15T08:45:02.892Z,23.57
2022-08-15T08:47:46.915Z,23.38
2022-08-15T08:50:33.811Z,23.33
2022-08-15T08:53:15.887Z,23.38
2022-08-15T08:55:52.511Z,23.37
2022-08-15T08:58:37.033Z,23.51
2022-08-15T09:01:18.349Z,23.47
2022-08-15T09:03:53.659Z,23.33
2022-08-15T09:06:28.445Z,23.36
2022-08-15T09:09:05.355Z,23.42
2022-08-15T09:11:45.051Z,23.46
2022-08-15T09:14:31.719Z,23.45
2022-08-15T09:17:30.080Z,23.23
2022-08-15T09:20:02.536Z,23.43
2022-08-15T09:22:31.519Z,23.40
2022-08-15T09:25:08.446Z,23.45
2022-08-15T09:27:54.402Z,23.28
2022-08-15T09:30:45.668Z,23.41
2022-08-15T09:33:30.514Z,23.44
2022-08-15T09:36:27.436Z,23.61
2022-08-15T09:39:05.089Z,23.61
2022-08-15T09:42:33.507Z,23.80
2022-08-15T09:45:21.462Z,23.84
2022-08-15T09:48:33.966Z,24.10
2022-08-15T09:51:19.062Z,24.32
2022-08-15T09:54:03.082Z,24.04
2022-08-15T09:56:53.514Z,24.17
2022-08-15T09:59:26.630Z,24.24
2022-08-15T10:02:29.245Z,24.12
2022-08-15T10:05:16.902Z,24.05
2022-08-15T10:07:51.847Z,24.02
2022-08-15T10:10:29.114Z,24.38
2022-08-15T10:13:30.675Z,24.35
2022-08-15T10:16:00.288Z,24.46
2022-08-15T10:19:11.140Z,24.45
2022-08-15T10:21:43.009Z,24.65
2022-08-15T10:24:31.323Z,24.60
2022-08-15T10:27:25.722Z,24.50
2022-08-15T10:30:13.697Z,24.75
2022-08-15T10:33:11.412Z,24.38
2022-08-15T10:35:52.525Z,24.54
2022-08-15T10:38:31.262Z,24.22
2022-08-15T10:41:19.069Z,24.68
2022-08-15T10:43:57.244Z,24.66
2022-08-15T10:46:46.479Z,24.53
2022-08-15T10:49:40.088Z,24.84
2022-08-15T10:52:28.272Z,24.90
2022-08-15T10:55:18.817Z,24.77
2022-08-15T10:58:19.768Z,24.51
2022-08-15T11:00:55.441Z,24.79
2022-08-15T11:04:48.852Z,24.80
2022-08-15T11:06:26.353Z,25.09
2022-08-15T11:09:06.121Z,24.98
2022-08-15T11:11:40.989Z,25.09
2022-08-15T11:14:29.284Z,24.99
2022-08-15T11:17:01.073Z,24.73
2022-08-15T11:20:03.341Z,24.62
2022-08-15T11:22:32.411Z,24.62
2022-08-15T11:25:10.240Z,24.67
2022-08-15T11:27:40.158Z,24.92
2022-08-15T11:30:21.885Z,24.76
2022-08-15T11:32:55.148Z,24.97
2022-08-15T11:35:27.316Z,24.81
2022-08-15T11:37:59.949Z,25.16
2022-08-15T11:40:38.489Z,25.25
2022-08-15T11:43:15.926Z,25.21
2022-08-15T11:45:51.826Z,25.34
2022-08-15T11:48:35.313Z,24.86
2022-08-15T11:51:10.357Z,25.14
2022-08-15T11:53:43.585Z,25.32
2022-08-15T11:56:35.548Z,25.11
2022-08-15T11:59:17.225Z,25.09
2022-08-15T12:02:32.105Z,25.09
2022-08-15T12:05:43.617Z,25.23
2022-08-15T12:08:28.384Z,25.01
2022-08-15T12:11:07.195Z,24.86
2022-08-15T12:13:41.890Z,24.87
2022-08-15T12:16:29.963Z,24.84
2022-08-15T12:18:59.514Z,24.52
2022-08-15T12:21:57.666Z,24.77
2022-08-15T12:24:47.939Z,24.82
2022-08-15T12:27:19.373Z,24.68
2022-08-15T12:29:52.929Z,24.92
2022-08-15T12:32:36.372Z,24.87
2022-08-15T12:35:24.278Z,24.79
2022-08-15T12:37:54.109Z,24.80
2022-08-15T12:40:56.872Z,24.94
2022-08-15T12:43:11.736Z,24.92
2022-08-15T12:45:50.953Z,25.11
2022-08-15T12:48:26.996Z,25.02
2022-08-15T12:51:06.241Z,25.05
2022-08-15T12:53:34.686Z,25.09
2022-08-15T12:56:30.191Z,25.49
2022-08-15T12:58:53.518Z,25.69
2022-08-15T13:01:36.944Z,25.85
2022-08-15T13:04:54.899Z,25.99
2022-08-15T13:07:15.355Z,26.62
2022-08-15T13:09:59.874Z,27.47
2022-08-15T13:12:28.512Z,27.66
2022-08-15T13:15:03.425Z,27.98
2022-08-15T13:17:52.778Z,27.94
2022-08-15T13:20:39.175Z,27.85
2022-08-15T13:23:40.943Z,27.44
2022-08-15T13:26:30.512Z,27.13
2022-08-15T13:29:02.725Z,27.83
2022-08-15T13:31:32.309Z,28.07
2022-08-15T13:34:02.865Z,28.09
2022-08-15T13:36:32.687Z,27.97
2022-08-15T13:39:11.126Z,27.03
2022-08-15T13:41:48.431Z,27.26
2022-08-15T13:44:31.220Z,25.98
2022-08-15T13:47:02.523Z,25.87
2022-08-15T13:49:40.773Z,25.10
2022-08-15T13:52:35.252Z,25.30
2022-08-15T13:55:01.624Z,25.21
2022-08-15T13:57:30.850Z,25.03
2022-08-15T14:00:00.161Z,25.10
2022-08-15T14:02:36.162Z,24.89
2022-08-15T14:05:10.114Z,25.30
2022-08-15T14:07:53.456Z,25.41
2022-08-15T14:11:00.609Z,25.81
2022-08-15T14:13:18.552Z,26.82
2022-08-15T14:16:08.809Z,27.18
2022-08-15T14:18:50.154Z,26.60
2022-08-15T14:21:26.363Z,27.19
2022-08-15T14:24:00.037Z,26.41
2022-08-15T14:27:10.116Z,27.53
2022-08-15T14:29:48.728Z,27.15
2022-08-15T14:35:17.245Z,26.87
2022-08-15T14:37:49.640Z,26.46
2022-08-15T14:40:24.015Z,27.09
2022-08-15T14:42:58.418Z,27.53
2022-08-15T14:46:31.240Z,28.22
2022-08-15T14:48:48.479Z,28.08
2022-08-15T14:51:23.122Z,28.81
2022-08-15T14:54:40.129Z,28.66
2022-08-15T14:57:02.783Z,28.71
2022-08-15T14:59:58.858Z,28.75
2022-08-15T15:02:23.423Z,28.41
2022-08-15T15:04:54.760Z,28.74
2022-08-15T15:07:26.503Z,28.59
2022-08-15T15:10:25.400Z,27.92
2022-08-15T15:12:56.749Z,27.20
2022-08-15T15:15:40.225Z,27.19
2022-08-15T15:18:38.149Z,27.18
2022-08-15T15:21:02.692Z,26.85
2022-08-15T15:23:32.578Z,27.05
2022-08-15T15:26:06.044Z,26.67
2022-08-15T15:28:46.864Z,27.25
2022-08-15T15:31:18.993Z,28.30
2022-08-15T15:33:57.882Z,28.42
2022-08-15T15:36:33.406Z,28.22
2022-08-15T15:39:06.365Z,27.97
2022-08-15T15:41:47.342Z,27.97
2022-08-15T15:44:20.734Z,27.60
2022-08-15T15:46:52.512Z,27.74
2022-08-15T15:49:29.465Z,27.79
2022-08-15T15:52:00.630Z,28.28
2022-08-15T15:54:35.934Z,29.05
2022-08-15T15:57:20.526Z,29.49
2022-08-15T16:00:00.089Z,29.23
2022-08-15T16:02:48.019Z,29.38
2022-08-15T16:05:23.645Z,29.59
2022-08-15T16:08:32.564Z,28.50
2022-08-15T16:11:11.620Z,28.87
2022-08-15T16:13:53.298Z,29.59
2022-08-15T16:16:29.759Z,30.06
2022-08-15T16:19:03.222Z,30.66
2022-08-15T16:21:44.448Z,30.87
2022-08-15T16:24:34.867Z,30.34
2022-08-15T16:27:13.769Z,30.45
2022-08-15T16:29:54.905Z,30.43
2022-08-15T16:32:32.022Z,30.39
2022-08-15T16:35:09.758Z,30.04
2022-08-15T16:37:43.186Z,30.07
2022-08-15T16:40:25.673Z,30.06
2022-08-15T16:43:00.596Z,29.39
2022-08-15T16:45:38.215Z,28.95
2022-08-15T16:48:19.400Z,29.61
2022-08-15T16:50:59.741Z,29.88
2022-08-15T16:53:56.380Z,29.39
2022-08-15T16:56:35.449Z,29.59
2022-08-15T16:59:14.530Z,28.66
2022-08-15T17:03:04.058Z,28.82
2022-08-15T17:05:13.214Z,29.47
2022-08-15T17:07:56.690Z,29.71
2022-08-15T17:10:45.931Z,27.73
2022-08-15T17:14:04.168Z,28.38
2022-08-15T17:16:37.353Z,28.67
2022-08-15T17:19:15.798Z,28.41
2022-08-15T17:21:54.548Z,29.19
2022-08-15T17:24:59.857Z,27.79
2022-08-15T17:27:46.323Z,27.20
2022-08-15T17:30:56.518Z,27.73
2022-08-15T17:33:42.123Z,27.12
2022-08-15T17:36:16.204Z,26.33
2022-08-15T17:38:56.453Z,26.66
2022-08-15T17:41:31.630Z,26.81
2022-08-15T17:44:15.637Z,26.88
2022-08-15T17:46:58.659Z,26.93
2022-08-15T17:49:37.276Z,26.39
2022-08-15T17:52:18.561Z,26.44
2022-08-15T17:54:53.146Z,26.42
2022-08-15T17:58:01.791Z,26.39
2022-08-15T18:00:32.031Z,26.35
2022-08-15T18:03:05.091Z,26.46
2022-08-15T18:05:36.100Z,26.47
2022-08-15T18:08:11.879Z,26.70
2022-08-15T18:10:47.413Z,26.78
2022-08-15T18:13:16.832Z,26.82
2022-08-15T18:16:20.588Z,26.82
2022-08-15T18:19:01.274Z,26.87
2022-08-15T18:21:33.021Z,27.00
2022-08-15T18:24:38.899Z,26.77
2022-08-15T18:26:58.749Z,26.46
2022-08-15T18:29:28.952Z,26.04
2022-08-15T18:32:04.136Z,26.03
2022-08-15T18:34:53.861Z,25.80
2022-08-15T18:37:36.807Z,25.23
2022-08-15T18:40:42.767Z,24.90
2022-08-15T18:43:13.535Z,24.97
2022-08-15T18:45:51.941Z,24.93
2022-08-15T18:48:34.592Z,24.91
2022-08-15T18:51:16.459Z,24.77
2022-08-15T18:53:56.802Z,24.70
2022-08-15T18:56:33.118Z,24.38
2022-08-15T18:59:08.192Z,24.40
2022-08-15T19:01:50.085Z,24.07
2022-08-15T19:04:51.455Z,23.90
2022-08-15T19:07:22.380Z,24.01
2022-08-15T19:10:00.757Z,23.91
2022-08-15T19:12:38.695Z,23.92
2022-08-15T19:15:23.930Z,23.87
2022-08-15T19:18:18.531Z,23.82
2022-08-15T19:21:03.874Z,23.50
2022-08-15T19:23:34.438Z,23.58
2022-08-15T19:26:26.432Z,23.76
2022-08-15T19:29:13.324Z,23.46
2022-08-15T19:31:53.203Z,23.46
2022-08-15T19:34:34.492Z,23.44
2022-08-15T19:37:22.659Z,23.16
2022-08-15T19:40:06.077Z,23.44
2022-08-15T19:42:58.755Z,23.34
2022-08-15T19:45:39.066Z,23.56
2022-08-15T19:48:20.773Z,23.38
2022-08-15T19:51:16.173Z,22.99
2022-08-15T19:53:59.960Z,22.54
2022-08-15T19:56:51.240Z,22.41
2022-08-15T19:59:38.224Z,22.71
2022-08-15T20:02:26.439Z,23.12
2022-08-15T20:05:06.824Z,23.09
2022-08-15T20:07:44.569Z,23.17
2022-08-15T20:10:20.554Z,23.15
2022-08-15T20:13:00.113Z,23.21
2022-08-15T20:15:46.239Z,23.18
2022-08-15T20:18:29.202Z,22.83
2022-08-15T20:21:09.592Z,22.70
2022-08-15T20:23:55.571Z,22.66
2022-08-15T20:26:31.974Z,22.52
2022-08-15T20:29:09.666Z,22.81
2022-08-15T20:32:22.609Z,22.91
2022-08-15T20:35:14.938Z,23.00
2022-08-15T20:37:49.656Z,22.84
2022-08-15T20:40:24.357Z,22.94
2022-08-15T20:43:11.776Z,22.73
2022-08-15T20:45:49.268Z,22.81
2022-08-15T20:48:42.301Z,22.86
2022-08-15T20:51:27.513Z,22.95
2022-08-15T20:54:34.646Z,23.09
2022-08-15T20:57:11.777Z,23.11
2022-08-15T20:59:43.694Z,23.14
2022-08-15T21:02:34.689Z,23.14
2022-08-15T21:05:42.621Z,23.00
2022-08-15T21:08:35.084Z,22.63
2022-08-15T21:11:23.708Z,22.30
2022-08-15T21:15:08.021Z,22.29
2022-08-15T21:17:15.537Z,22.43
2022-08-15T21:20:00.153Z,22.77
2022-08-15T21:22:51.814Z,22.88
2022-08-15T21:25:43.316Z,23.02
2022-08-15T21:28:32.274Z,22.97
2022-08-15T21:31:39.895Z,22.70
2022-08-15T21:34:34.181Z,22.59
2022-08-15T21:37:53.699Z,22.52
2022-08-15T21:40:59.409Z,22.34
2022-08-15T21:44:11.678Z,22.34
2022-08-15T21:47:11.996Z,22.30
2022-08-15T21:50:16.852Z,22.41
2022-08-15T21:53:00.537Z,22.18
2022-08-15T21:55:40.793Z,22.24
2022-08-15T21:58:37.729Z,22.27
2022-08-15T22:01:23.075Z,22.45
2022-08-15T22:04:01.050Z,22.43
2022-08-15T22:06:32.669Z,22.12
2022-08-15T22:09:01.667Z,22.26
2022-08-15T22:11:36.018Z,22.11
2022-08-15T22:14:09.079Z,22.45
2022-08-15T22:17:01.791Z,22.25
2022-08-15T22:19:40.378Z,22.28
2022-08-15T22:22:18.838Z,22.02
2022-08-15T22:24:50.267Z,21.67
2022-08-15T22:27:22.664Z,21.38
2022-08-15T22:29:55.308Z,21.12
2022-08-15T22:32:48.328Z,20.99
2022-08-15T22:35:18.567Z,20.80
2022-08-15T22:37:48.499Z,20.89
2022-08-15T22:40:22.456Z,20.85
2022-08-15T22:42:56.785Z,20.80
2022-08-15T22:45:35.762Z,20.80
2022-08-15T22:48:19.133Z,20.86
2022-08-15T22:50:57.064Z,20.70
2022-08-15T22:53:32.316Z,20.73
2022-08-15T22:56:52.772Z,20.64
2022-08-15T22:58:51.713Z,20.50
2022-08-15T23:01:26.154Z,20.56
2022-08-15T23:04:02.539Z,20.55
2022-08-15T23:06:46.101Z,20.58
2022-08-15T23:09:35.398Z,20.45
2022-08-15T23:12:10.208Z,20.43
2022-08-15T23:14:43.529Z,20.48
2022-08-15T23:17:17.381Z,20.40
2022-08-15T23:19:57.477Z,20.28
2022-08-15T23:22:32.804Z,20.20
2022-08-15T23:25:18.518Z,20.11
2022-08-15T23:27:47.801Z,20.05
2022-08-15T23:30:44.653Z,19.93
2022-08-15T23:33:27.846Z,19.88
2022-08-15T23:36:06.788Z,19.88
2022-08-15T23:38:35.696Z,19.74
2022-08-15T23:41:07.841Z,19.80
2022-08-15T23:43:55.941Z,19.47
2022-08-15T23:46:36.613Z,19.32
2022-08-15T23:49:07.820Z,19.52
2022-08-15T23:51:42.155Z,19.60
2022-08-15T23:54:15.371Z,19.66
2022-08-15T23:56:45.530Z,19.81
2022-08-15T23:59:17.150Z,19.74
